sensor_id;sensor_type;location;lat;lon;timestamp;temperature;humidity
516;DHT22;244;48.508;9.052;2023-10-13T00:00:47;16.80;11.50
516;DHT22;244;48.508;9.052;2023-10-13T00:03:15;16.70;11.50
516;DHT22;244;48.508;9.052;2023-10-13T00:05:42;16.70;11.60
516;DHT22;244;48.508;9.052;2023-10-13T00:08:10;16.60;11.70
516;DHT22;244;48.508;9.052;2023-10-13T00:10:38;16.60;11.80
516;DHT22;244;48.508;9.052;2023-10-13T00:13:06;16.50;11.80
516;DHT22;244;48.508;9.052;2023-10-13T00:15:39;16.40;11.90
516;DHT22;244;48.508;9.052;2023-10-13T00:18:10;16.40;12.00
516;DHT22;244;48.508;9.052;2023-10-13T00:20:41;16.30;12.10
516;DHT22;244;48.508;9.052;2023-10-13T00:23:13;16.30;12.30
516;DHT22;244;48.508;9.052;2023-10-13T00:25:42;16.30;12.40
516;DHT22;244;48.508;9.052;2023-10-13T00:28:15;16.20;12.50
516;DHT22;244;48.508;9.052;2023-10-13T00:30:49;16.20;12.60
516;DHT22;244;48.508;9.052;2023-10-13T00:33:25;16.10;13.20
516;DHT22;244;48.508;9.052;2023-10-13T00:35:52;16.10;12.80
516;DHT22;244;48.508;9.052;2023-10-13T00:38:23;16.10;12.80
516;DHT22;244;48.508;9.052;2023-10-13T00:40:54;16.00;12.80
516;DHT22;244;48.508;9.052;2023-10-13T00:43:22;16.00;12.90
516;DHT22;244;48.508;9.052;2023-10-13T00:46:01;15.90;12.90
516;DHT22;244;48.508;9.052;2023-10-13T00:48:41;15.90;13.00
516;DHT22;244;48.508;9.052;2023-10-13T00:51:10;15.90;13.20
516;DHT22;244;48.508;9.052;2023-10-13T00:53:44;15.80;13.20
516;DHT22;244;48.508;9.052;2023-10-13T00:56:14;15.80;13.30
516;DHT22;244;48.508;9.052;2023-10-13T00:58:53;15.70;13.40
516;DHT22;244;48.508;9.052;2023-10-13T01:01:23;15.70;13.50
516;DHT22;244;48.508;9.052;2023-10-13T01:03:55;15.70;13.50
516;DHT22;244;48.508;9.052;2023-10-13T01:06:25;15.60;13.60
516;DHT22;244;48.508;9.052;2023-10-13T01:08:57;15.60;14.30
516;DHT22;244;48.508;9.052;2023-10-13T01:11:26;15.60;13.80
516;DHT22;244;48.508;9.052;2023-10-13T01:13:55;15.50;13.90
516;DHT22;244;48.508;9.052;2023-10-13T01:16:22;15.50;14.00
516;DHT22;244;48.508;9.052;2023-10-13T01:18:52;15.40;14.00
516;DHT22;244;48.508;9.052;2023-10-13T01:21:25;15.40;14.10
516;DHT22;244;48.508;9.052;2023-10-13T01:23:54;15.40;14.10
516;DHT22;244;48.508;9.052;2023-10-13T01:26:21;15.40;14.10
516;DHT22;244;48.508;9.052;2023-10-13T01:28:50;15.30;14.10
516;DHT22;244;48.508;9.052;2023-10-13T01:31:20;15.30;14.20
516;DHT22;244;48.508;9.052;2023-10-13T01:33:53;15.30;14.30
516;DHT22;244;48.508;9.052;2023-10-13T01:36:24;15.20;14.30
516;DHT22;244;48.508;9.052;2023-10-13T01:38:50;15.20;14.40
516;DHT22;244;48.508;9.052;2023-10-13T01:41:21;15.20;14.40
516;DHT22;244;48.508;9.052;2023-10-13T01:43:48;15.10;14.50
516;DHT22;244;48.508;9.052;2023-10-13T01:46:14;15.10;14.50
516;DHT22;244;48.508;9.052;2023-10-13T01:48:45;15.10;14.50
516;DHT22;244;48.508;9.052;2023-10-13T01:51:12;15.00;14.50
516;DHT22;244;48.508;9.052;2023-10-13T01:53:39;15.00;14.60
516;DHT22;244;48.508;9.052;2023-10-13T01:56:07;15.00;14.70
516;DHT22;244;48.508;9.052;2023-10-13T01:58:41;15.00;14.80
516;DHT22;244;48.508;9.052;2023-10-13T02:01:08;14.90;14.80
516;DHT22;244;48.508;9.052;2023-10-13T02:03:36;14.90;14.80
516;DHT22;244;48.508;9.052;2023-10-13T02:06:06;14.80;14.80
516;DHT22;244;48.508;9.052;2023-10-13T02:08:36;14.80;14.90
516;DHT22;244;48.508;9.052;2023-10-13T02:11:06;14.80;15.00
516;DHT22;244;48.508;9.052;2023-10-13T02:13:34;14.70;15.00
516;DHT22;244;48.508;9.052;2023-10-13T02:16:08;14.70;15.10
516;DHT22;244;48.508;9.052;2023-10-13T02:18:37;14.70;15.10
516;DHT22;244;48.508;9.052;2023-10-13T02:21:07;14.60;15.10
516;DHT22;244;48.508;9.052;2023-10-13T02:23:39;14.60;15.20
516;DHT22;244;48.508;9.052;2023-10-13T02:26:09;14.60;15.30
516;DHT22;244;48.508;9.052;2023-10-13T02:28:38;14.60;15.40
516;DHT22;244;48.508;9.052;2023-10-13T02:31:04;14.60;15.50
516;DHT22;244;48.508;9.052;2023-10-13T02:33:33;14.60;15.50
516;DHT22;244;48.508;9.052;2023-10-13T02:36:01;14.60;15.50
516;DHT22;244;48.508;9.052;2023-10-13T02:38:30;14.60;15.50
516;DHT22;244;48.508;9.052;2023-10-13T02:41:00;14.50;15.50
516;DHT22;244;48.508;9.052;2023-10-13T02:43:35;14.50;15.50
516;DHT22;244;48.508;9.052;2023-10-13T02:46:01;14.50;15.50
516;DHT22;244;48.508;9.052;2023-10-13T02:48:29;14.40;15.60
516;DHT22;244;48.508;9.052;2023-10-13T02:51:08;14.40;15.60
516;DHT22;244;48.508;9.052;2023-10-13T02:53:43;14.40;15.70
516;DHT22;244;48.508;9.052;2023-10-13T02:56:12;14.40;15.80
516;DHT22;244;48.508;9.052;2023-10-13T02:58:40;14.30;15.80
516;DHT22;244;48.508;9.052;2023-10-13T03:01:09;14.30;15.90
516;DHT22;244;48.508;9.052;2023-10-13T03:03:44;14.30;15.90
516;DHT22;244;48.508;9.052;2023-10-13T03:06:15;14.30;16.00
516;DHT22;244;48.508;9.052;2023-10-13T03:08:42;14.20;16.00
516;DHT22;244;48.508;9.052;2023-10-13T03:11:09;14.20;16.00
516;DHT22;244;48.508;9.052;2023-10-13T03:13:37;14.20;16.10
516;DHT22;244;48.508;9.052;2023-10-13T03:16:11;14.20;16.10
516;DHT22;244;48.508;9.052;2023-10-13T03:18:42;14.10;16.20
516;DHT22;244;48.508;9.052;2023-10-13T03:21:18;14.10;16.20
516;DHT22;244;48.508;9.052;2023-10-13T03:23:55;14.10;16.20
516;DHT22;244;48.508;9.052;2023-10-13T03:26:21;14.00;16.30
516;DHT22;244;48.508;9.052;2023-10-13T03:28:48;14.00;16.30
516;DHT22;244;48.508;9.052;2023-10-13T03:31:18;14.00;16.40
516;DHT22;244;48.508;9.052;2023-10-13T03:33:51;13.90;16.40
516;DHT22;244;48.508;9.052;2023-10-13T03:36:25;13.90;16.50
516;DHT22;244;48.508;9.052;2023-10-13T03:39:12;13.90;16.50
516;DHT22;244;48.508;9.052;2023-10-13T03:41:40;13.80;16.50
516;DHT22;244;48.508;9.052;2023-10-13T03:44:07;13.80;16.50
516;DHT22;244;48.508;9.052;2023-10-13T03:46:39;13.80;16.60
516;DHT22;244;48.508;9.052;2023-10-13T03:49:07;13.70;16.60
516;DHT22;244;48.508;9.052;2023-10-13T03:51:40;13.70;16.70
516;DHT22;244;48.508;9.052;2023-10-13T03:54:08;13.70;16.80
516;DHT22;244;48.508;9.052;2023-10-13T03:56:35;13.60;16.70
516;DHT22;244;48.508;9.052;2023-10-13T03:59:10;13.60;16.80
516;DHT22;244;48.508;9.052;2023-10-13T04:01:43;13.60;16.80
516;DHT22;244;48.508;9.052;2023-10-13T04:04:13;13.60;16.80
516;DHT22;244;48.508;9.052;2023-10-13T04:06:42;13.50;16.80
516;DHT22;244;48.508;9.052;2023-10-13T04:09:24;13.50;16.90
516;DHT22;244;48.508;9.052;2023-10-13T04:12:09;13.50;17.00
516;DHT22;244;48.508;9.052;2023-10-13T04:15:07;13.50;17.10
516;DHT22;244;48.508;9.052;2023-10-13T04:17:48;13.40;17.00
516;DHT22;244;48.508;9.052;2023-10-13T04:20:16;13.40;17.00
516;DHT22;244;48.508;9.052;2023-10-13T04:23:01;13.40;17.20
516;DHT22;244;48.508;9.052;2023-10-13T04:25:45;13.40;17.20
516;DHT22;244;48.508;9.052;2023-10-13T04:28:29;13.30;17.10
516;DHT22;244;48.508;9.052;2023-10-13T04:31:05;13.30;17.10
516;DHT22;244;48.508;9.052;2023-10-13T04:33:50;13.30;17.10
516;DHT22;244;48.508;9.052;2023-10-13T04:36:21;13.30;17.10
516;DHT22;244;48.508;9.052;2023-10-13T04:39:03;13.30;17.10
516;DHT22;244;48.508;9.052;2023-10-13T04:41:40;13.30;17.10
516;DHT22;244;48.508;9.052;2023-10-13T04:44:08;13.30;17.10
516;DHT22;244;48.508;9.052;2023-10-13T04:46:49;13.20;17.00
516;DHT22;244;48.508;9.052;2023-10-13T04:49:34;13.20;17.00
516;DHT22;244;48.508;9.052;2023-10-13T04:52:15;13.20;17.00
516;DHT22;244;48.508;9.052;2023-10-13T04:55:06;13.20;17.00
516;DHT22;244;48.508;9.052;2023-10-13T04:57:42;13.20;17.00
516;DHT22;244;48.508;9.052;2023-10-13T05:00:15;13.20;17.00
516;DHT22;244;48.508;9.052;2023-10-13T05:02:59;13.20;17.10
516;DHT22;244;48.508;9.052;2023-10-13T05:06:17;13.20;17.00
516;DHT22;244;48.508;9.052;2023-10-13T05:08:57;13.20;17.00
516;DHT22;244;48.508;9.052;2023-10-13T05:11:43;13.10;17.10
516;DHT22;244;48.508;9.052;2023-10-13T05:14:27;13.10;17.30
516;DHT22;244;48.508;9.052;2023-10-13T05:17:11;13.10;17.40
516;DHT22;244;48.508;9.052;2023-10-13T05:19:57;13.10;17.40
516;DHT22;244;48.508;9.052;2023-10-13T05:22:42;13.10;17.40
516;DHT22;244;48.508;9.052;2023-10-13T05:25:22;13.00;17.40
516;DHT22;244;48.508;9.052;2023-10-13T05:28:08;13.00;17.40
516;DHT22;244;48.508;9.052;2023-10-13T05:30:52;13.00;17.40
516;DHT22;244;48.508;9.052;2023-10-13T05:33:36;13.00;17.40
516;DHT22;244;48.508;9.052;2023-10-13T05:36:20;12.90;17.30
516;DHT22;244;48.508;9.052;2023-10-13T05:39:04;12.90;17.30
516;DHT22;244;48.508;9.052;2023-10-13T05:41:48;12.90;17.50
516;DHT22;244;48.508;9.052;2023-10-13T05:44:34;12.90;18.10
516;DHT22;244;48.508;9.052;2023-10-13T05:47:03;12.90;17.50
516;DHT22;244;48.508;9.052;2023-10-13T05:50:09;12.90;17.60
516;DHT22;244;48.508;9.052;2023-10-13T05:52:55;12.90;17.60
516;DHT22;244;48.508;9.052;2023-10-13T05:55:39;12.80;17.60
516;DHT22;244;48.508;9.052;2023-10-13T05:58:23;12.80;17.60
516;DHT22;244;48.508;9.052;2023-10-13T06:01:13;12.80;18.00
516;DHT22;244;48.508;9.052;2023-10-13T06:03:57;12.90;17.80
516;DHT22;244;48.508;9.052;2023-10-13T06:06:41;12.90;17.90
516;DHT22;244;48.508;9.052;2023-10-13T06:09:26;12.90;17.90
516;DHT22;244;48.508;9.052;2023-10-13T06:12:10;12.90;18.00
516;DHT22;244;48.508;9.052;2023-10-13T06:14:54;12.90;17.90
516;DHT22;244;48.508;9.052;2023-10-13T06:17:40;13.00;17.90
516;DHT22;244;48.508;9.052;2023-10-13T06:20:24;13.00;17.70
516;DHT22;244;48.508;9.052;2023-10-13T06:23:08;13.00;17.70
516;DHT22;244;48.508;9.052;2023-10-13T06:25:54;13.10;17.80
516;DHT22;244;48.508;9.052;2023-10-13T06:28:39;13.10;17.80
516;DHT22;244;48.508;9.052;2023-10-13T06:31:12;13.10;17.90
516;DHT22;244;48.508;9.052;2023-10-13T06:33:48;13.10;17.80
516;DHT22;244;48.508;9.052;2023-10-13T06:36:15;13.20;17.80
516;DHT22;244;48.508;9.052;2023-10-13T06:38:43;13.30;17.90
516;DHT22;244;48.508;9.052;2023-10-13T06:41:10;13.30;17.80
516;DHT22;244;48.508;9.052;2023-10-13T06:43:45;13.30;17.70
516;DHT22;244;48.508;9.052;2023-10-13T06:46:25;13.40;17.70
516;DHT22;244;48.508;9.052;2023-10-13T06:48:55;13.40;17.60
516;DHT22;244;48.508;9.052;2023-10-13T06:51:25;13.50;17.50
516;DHT22;244;48.508;9.052;2023-10-13T06:53:56;13.50;18.00
516;DHT22;244;48.508;9.052;2023-10-13T06:56:24;13.60;17.30
516;DHT22;244;48.508;9.052;2023-10-13T06:58:55;13.60;17.30
516;DHT22;244;48.508;9.052;2023-10-13T07:01:25;13.70;17.40
516;DHT22;244;48.508;9.052;2023-10-13T07:03:52;13.70;17.40
516;DHT22;244;48.508;9.052;2023-10-13T07:06:21;13.80;17.40
516;DHT22;244;48.508;9.052;2023-10-13T07:08:48;13.80;17.40
516;DHT22;244;48.508;9.052;2023-10-13T07:11:19;13.90;17.50
516;DHT22;244;48.508;9.052;2023-10-13T07:13:59;13.90;17.50
516;DHT22;244;48.508;9.052;2023-10-13T07:16:35;13.90;17.50
516;DHT22;244;48.508;9.052;2023-10-13T07:19:02;13.90;17.60
516;DHT22;244;48.508;9.052;2023-10-13T07:21:33;14.00;17.60
516;DHT22;244;48.508;9.052;2023-10-13T07:24:00;14.00;17.60
516;DHT22;244;48.508;9.052;2023-10-13T07:26:34;14.10;17.70
516;DHT22;244;48.508;9.052;2023-10-13T07:29:08;14.10;17.50
516;DHT22;244;48.508;9.052;2023-10-13T07:31:35;14.20;17.40
516;DHT22;244;48.508;9.052;2023-10-13T07:34:04;14.30;17.30
516;DHT22;244;48.508;9.052;2023-10-13T07:36:39;14.40;17.30
516;DHT22;244;48.508;9.052;2023-10-13T07:39:09;14.40;17.20
516;DHT22;244;48.508;9.052;2023-10-13T07:41:50;14.50;17.10
516;DHT22;244;48.508;9.052;2023-10-13T07:44:21;14.50;17.10
516;DHT22;244;48.508;9.052;2023-10-13T07:46:51;14.60;17.00
516;DHT22;244;48.508;9.052;2023-10-13T07:49:28;14.70;17.00
516;DHT22;244;48.508;9.052;2023-10-13T07:51:59;14.80;17.00
516;DHT22;244;48.508;9.052;2023-10-13T07:54:42;14.90;16.90
516;DHT22;244;48.508;9.052;2023-10-13T07:57:13;15.00;16.80
516;DHT22;244;48.508;9.052;2023-10-13T07:59:41;15.00;16.70
516;DHT22;244;48.508;9.052;2023-10-13T08:02:14;15.10;16.60
516;DHT22;244;48.508;9.052;2023-10-13T08:05:01;15.30;16.70
516;DHT22;244;48.508;9.052;2023-10-13T08:07:31;15.40;16.60
516;DHT22;244;48.508;9.052;2023-10-13T08:09:59;15.50;16.50
516;DHT22;244;48.508;9.052;2023-10-13T08:12:27;15.60;16.40
516;DHT22;244;48.508;9.052;2023-10-13T08:14:54;15.70;16.30
516;DHT22;244;48.508;9.052;2023-10-13T08:17:37;15.80;16.10
516;DHT22;244;48.508;9.052;2023-10-13T08:20:10;15.90;16.00
516;DHT22;244;48.508;9.052;2023-10-13T08:22:39;16.00;16.20
516;DHT22;244;48.508;9.052;2023-10-13T08:25:12;16.10;15.70
516;DHT22;244;48.508;9.052;2023-10-13T08:27:46;16.30;15.60
516;DHT22;244;48.508;9.052;2023-10-13T08:30:31;16.40;15.50
516;DHT22;244;48.508;9.052;2023-10-13T08:33:08;16.50;15.30
516;DHT22;244;48.508;9.052;2023-10-13T08:35:43;16.60;15.10
516;DHT22;244;48.508;9.052;2023-10-13T08:38:32;16.70;14.90
516;DHT22;244;48.508;9.052;2023-10-13T08:41:16;16.90;14.90
516;DHT22;244;48.508;9.052;2023-10-13T08:43:57;17.00;14.70
516;DHT22;244;48.508;9.052;2023-10-13T08:46:30;17.20;14.60
516;DHT22;244;48.508;9.052;2023-10-13T08:49:18;17.30;14.90
516;DHT22;244;48.508;9.052;2023-10-13T08:51:49;17.50;14.20
516;DHT22;244;48.508;9.052;2023-10-13T08:54:33;17.60;14.00
516;DHT22;244;48.508;9.052;2023-10-13T08:57:05;17.80;13.80
516;DHT22;244;48.508;9.052;2023-10-13T08:59:58;18.00;13.70
516;DHT22;244;48.508;9.052;2023-10-13T09:02:47;18.10;13.40
516;DHT22;244;48.508;9.052;2023-10-13T09:05:33;18.30;13.20
516;DHT22;244;48.508;9.052;2023-10-13T09:08:08;18.50;13.00
516;DHT22;244;48.508;9.052;2023-10-13T09:10:36;18.70;12.80
516;DHT22;244;48.508;9.052;2023-10-13T09:13:34;18.80;12.60
516;DHT22;244;48.508;9.052;2023-10-13T09:16:10;19.10;12.10
516;DHT22;244;48.508;9.052;2023-10-13T09:18:42;19.30;12.20
516;DHT22;244;48.508;9.052;2023-10-13T09:21:12;19.50;12.20
516;DHT22;244;48.508;9.052;2023-10-13T09:23:56;19.60;11.80
516;DHT22;244;48.508;9.052;2023-10-13T09:26:39;19.80;11.50
516;DHT22;244;48.508;9.052;2023-10-13T09:29:15;19.90;11.20
516;DHT22;244;48.508;9.052;2023-10-13T09:31:43;20.10;11.00
516;DHT22;244;48.508;9.052;2023-10-13T09:34:20;20.20;10.70
516;DHT22;244;48.508;9.052;2023-10-13T09:36:47;20.40;10.50
516;DHT22;244;48.508;9.052;2023-10-13T09:39:24;20.50;10.30
516;DHT22;244;48.508;9.052;2023-10-13T09:42:02;20.60;10.00
516;DHT22;244;48.508;9.052;2023-10-13T09:44:29;20.80;9.90
516;DHT22;244;48.508;9.052;2023-10-13T09:47:00;20.90;9.60
516;DHT22;244;48.508;9.052;2023-10-13T09:49:38;21.10;9.40
516;DHT22;244;48.508;9.052;2023-10-13T09:52:14;21.20;9.10
516;DHT22;244;48.508;9.052;2023-10-13T09:54:51;21.30;9.00
516;DHT22;244;48.508;9.052;2023-10-13T09:57:30;21.40;8.80
516;DHT22;244;48.508;9.052;2023-10-13T10:00:09;21.60;8.60
516;DHT22;244;48.508;9.052;2023-10-13T10:02:54;21.70;8.30
516;DHT22;244;48.508;9.052;2023-10-13T10:05:27;22.00;8.20
516;DHT22;244;48.508;9.052;2023-10-13T10:07:59;22.20;7.70
516;DHT22;244;48.508;9.052;2023-10-13T10:10:41;22.50;7.30
516;DHT22;244;48.508;9.052;2023-10-13T10:13:19;22.80;6.70
516;DHT22;244;48.508;9.052;2023-10-13T10:15:51;23.20;6.80
516;DHT22;244;48.508;9.052;2023-10-13T10:18:21;23.50;5.80
516;DHT22;244;48.508;9.052;2023-10-13T10:20:50;23.70;5.50
516;DHT22;244;48.508;9.052;2023-10-13T10:23:24;24.00;4.80
516;DHT22;244;48.508;9.052;2023-10-13T10:25:53;24.20;4.20
516;DHT22;244;48.508;9.052;2023-10-13T10:28:38;24.50;3.70
516;DHT22;244;48.508;9.052;2023-10-13T10:31:07;24.80;3.10
516;DHT22;244;48.508;9.052;2023-10-13T10:33:38;25.00;2.40
516;DHT22;244;48.508;9.052;2023-10-13T10:36:05;25.10;2.00
516;DHT22;244;48.508;9.052;2023-10-13T10:38:38;25.30;1.20
516;DHT22;244;48.508;9.052;2023-10-13T10:41:05;25.50;1.00
516;DHT22;244;48.508;9.052;2023-10-13T10:43:40;25.70;1.00
516;DHT22;244;48.508;9.052;2023-10-13T10:46:12;25.90;1.00
516;DHT22;244;48.508;9.052;2023-10-13T10:48:39;26.00;1.00
516;DHT22;244;48.508;9.052;2023-10-13T10:51:09;26.20;1.00
516;DHT22;244;48.508;9.052;2023-10-13T10:53:47;26.30;1.00
516;DHT22;244;48.508;9.052;2023-10-13T10:56:15;26.50;1.00
516;DHT22;244;48.508;9.052;2023-10-13T10:59:04;26.60;1.00
516;DHT22;244;48.508;9.052;2023-10-13T11:01:32;26.80;1.00
516;DHT22;244;48.508;9.052;2023-10-13T11:04:13;26.80;1.00
516;DHT22;244;48.508;9.052;2023-10-13T11:06:47;26.90;1.00
516;DHT22;244;48.508;9.052;2023-10-13T11:09:14;27.00;1.00
516;DHT22;244;48.508;9.052;2023-10-13T11:12:07;27.10;1.00
516;DHT22;244;48.508;9.052;2023-10-13T11:14:43;27.20;1.00
516;DHT22;244;48.508;9.052;2023-10-13T11:17:19;27.30;1.00
516;DHT22;244;48.508;9.052;2023-10-13T11:19:51;27.40;1.00
516;DHT22;244;48.508;9.052;2023-10-13T11:22:19;27.40;1.00
516;DHT22;244;48.508;9.052;2023-10-13T11:25:07;27.40;1.00
516;DHT22;244;48.508;9.052;2023-10-13T11:27:36;27.50;1.00
516;DHT22;244;48.508;9.052;2023-10-13T11:30:19;27.60;1.00
516;DHT22;244;48.508;9.052;2023-10-13T11:32:57;27.60;1.00
516;DHT22;244;48.508;9.052;2023-10-13T11:35:24;27.70;1.00
516;DHT22;244;48.508;9.052;2023-10-13T11:37:54;27.80;1.00
516;DHT22;244;48.508;9.052;2023-10-13T11:40:29;27.80;1.00
516;DHT22;244;48.508;9.052;2023-10-13T11:43:10;27.90;1.00
516;DHT22;244;48.508;9.052;2023-10-13T11:45:42;27.90;1.00
516;DHT22;244;48.508;9.052;2023-10-13T11:48:20;27.90;1.00
516;DHT22;244;48.508;9.052;2023-10-13T11:51:00;28.00;1.00
516;DHT22;244;48.508;9.052;2023-10-13T11:53:31;28.10;1.00
516;DHT22;244;48.508;9.052;2023-10-13T11:55:58;28.20;1.00
516;DHT22;244;48.508;9.052;2023-10-13T11:58:25;28.20;1.00
516;DHT22;244;48.508;9.052;2023-10-13T12:00:55;28.30;1.00
516;DHT22;244;48.508;9.052;2023-10-13T12:03:46;28.40;1.00
516;DHT22;244;48.508;9.052;2023-10-13T12:06:33;28.40;1.00
516;DHT22;244;48.508;9.052;2023-10-13T12:09:12;28.50;1.00
516;DHT22;244;48.508;9.052;2023-10-13T12:11:58;28.60;1.00
516;DHT22;244;48.508;9.052;2023-10-13T12:14:27;28.60;1.00
516;DHT22;244;48.508;9.052;2023-10-13T12:16:56;28.70;1.00
516;DHT22;244;48.508;9.052;2023-10-13T12:19:29;28.70;1.00
516;DHT22;244;48.508;9.052;2023-10-13T12:21:58;28.80;1.00
516;DHT22;244;48.508;9.052;2023-10-13T12:24:30;28.80;1.00
516;DHT22;244;48.508;9.052;2023-10-13T12:27:06;28.90;1.00
516;DHT22;244;48.508;9.052;2023-10-13T12:29:44;28.90;1.00
516;DHT22;244;48.508;9.052;2023-10-13T12:32:14;28.90;1.00
516;DHT22;244;48.508;9.052;2023-10-13T12:34:46;29.00;1.00
516;DHT22;244;48.508;9.052;2023-10-13T12:37:26;29.00;1.00
516;DHT22;244;48.508;9.052;2023-10-13T12:40:17;29.10;1.00
516;DHT22;244;48.508;9.052;2023-10-13T12:43:02;29.10;1.00
516;DHT22;244;48.508;9.052;2023-10-13T12:45:47;29.20;1.00
516;DHT22;244;48.508;9.052;2023-10-13T12:48:34;29.20;1.00
516;DHT22;244;48.508;9.052;2023-10-13T12:51:18;29.30;1.00
516;DHT22;244;48.508;9.052;2023-10-13T12:54:06;29.40;1.00
516;DHT22;244;48.508;9.052;2023-10-13T12:56:40;29.40;1.00
516;DHT22;244;48.508;9.052;2023-10-13T12:59:08;29.50;1.00
516;DHT22;244;48.508;9.052;2023-10-13T13:01:35;29.50;1.00
516;DHT22;244;48.508;9.052;2023-10-13T13:04:09;29.60;1.00
516;DHT22;244;48.508;9.052;2023-10-13T13:06:44;29.60;1.00
516;DHT22;244;48.508;9.052;2023-10-13T13:09:11;29.70;1.00
516;DHT22;244;48.508;9.052;2023-10-13T13:11:38;29.70;1.00
516;DHT22;244;48.508;9.052;2023-10-13T13:14:06;29.70;1.00
516;DHT22;244;48.508;9.052;2023-10-13T13:16:34;29.70;1.00
516;DHT22;244;48.508;9.052;2023-10-13T13:19:04;29.70;1.00
516;DHT22;244;48.508;9.052;2023-10-13T13:21:37;29.70;1.00
516;DHT22;244;48.508;9.052;2023-10-13T13:24:05;29.70;1.00
516;DHT22;244;48.508;9.052;2023-10-13T13:26:36;29.70;1.00
516;DHT22;244;48.508;9.052;2023-10-13T13:29:06;29.70;1.00
516;DHT22;244;48.508;9.052;2023-10-13T13:31:35;29.70;1.00
516;DHT22;244;48.508;9.052;2023-10-13T13:34:07;29.60;1.00
516;DHT22;244;48.508;9.052;2023-10-13T13:36:36;29.60;1.00
516;DHT22;244;48.508;9.052;2023-10-13T13:39:03;29.60;1.00
516;DHT22;244;48.508;9.052;2023-10-13T13:41:31;29.60;1.00
516;DHT22;244;48.508;9.052;2023-10-13T13:43:59;29.60;1.00
516;DHT22;244;48.508;9.052;2023-10-13T13:46:39;29.60;1.00
516;DHT22;244;48.508;9.052;2023-10-13T13:49:08;29.70;1.00
516;DHT22;244;48.508;9.052;2023-10-13T13:51:45;29.70;1.00
516;DHT22;244;48.508;9.052;2023-10-13T13:54:18;29.70;1.00
516;DHT22;244;48.508;9.052;2023-10-13T13:56:46;29.70;1.00
516;DHT22;244;48.508;9.052;2023-10-13T13:59:13;29.80;1.00
516;DHT22;244;48.508;9.052;2023-10-13T14:01:45;29.80;1.00
516;DHT22;244;48.508;9.052;2023-10-13T14:04:12;29.80;1.00
516;DHT22;244;48.508;9.052;2023-10-13T14:06:45;29.80;1.00
516;DHT22;244;48.508;9.052;2023-10-13T14:09:12;29.90;1.00
516;DHT22;244;48.508;9.052;2023-10-13T14:11:58;29.90;1.00
516;DHT22;244;48.508;9.052;2023-10-13T14:14:42;29.90;1.00
516;DHT22;244;48.508;9.052;2023-10-13T14:17:14;29.90;1.00
516;DHT22;244;48.508;9.052;2023-10-13T14:19:41;29.90;1.00
516;DHT22;244;48.508;9.052;2023-10-13T14:22:12;29.90;1.00
516;DHT22;244;48.508;9.052;2023-10-13T14:24:40;29.90;1.00
516;DHT22;244;48.508;9.052;2023-10-13T14:27:16;29.90;1.00
516;DHT22;244;48.508;9.052;2023-10-13T14:29:45;29.90;1.00
516;DHT22;244;48.508;9.052;2023-10-13T14:32:14;29.90;1.00
516;DHT22;244;48.508;9.052;2023-10-13T14:34:42;29.90;1.00
516;DHT22;244;48.508;9.052;2023-10-13T14:37:10;29.90;1.00
516;DHT22;244;48.508;9.052;2023-10-13T14:39:39;29.90;1.00
516;DHT22;244;48.508;9.052;2023-10-13T14:42:06;29.90;1.00
516;DHT22;244;48.508;9.052;2023-10-13T14:44:33;29.90;1.00
516;DHT22;244;48.508;9.052;2023-10-13T14:47:01;29.90;1.00
516;DHT22;244;48.508;9.052;2023-10-13T14:49:31;29.90;1.00
516;DHT22;244;48.508;9.052;2023-10-13T14:51:58;29.90;1.00
516;DHT22;244;48.508;9.052;2023-10-13T14:54:25;29.90;1.00
516;DHT22;244;48.508;9.052;2023-10-13T14:57:01;29.90;1.00
516;DHT22;244;48.508;9.052;2023-10-13T14:59:28;29.80;1.00
516;DHT22;244;48.508;9.052;2023-10-13T15:01:59;29.80;1.00
516;DHT22;244;48.508;9.052;2023-10-13T15:04:28;29.70;1.00
516;DHT22;244;48.508;9.052;2023-10-13T15:06:58;29.70;1.00
516;DHT22;244;48.508;9.052;2023-10-13T15:09:27;29.60;1.00
516;DHT22;244;48.508;9.052;2023-10-13T15:11:54;29.50;1.00
516;DHT22;244;48.508;9.052;2023-10-13T15:14:23;29.50;1.00
516;DHT22;244;48.508;9.052;2023-10-13T15:16:50;29.40;1.00
516;DHT22;244;48.508;9.052;2023-10-13T15:19:17;29.30;1.00
516;DHT22;244;48.508;9.052;2023-10-13T15:21:44;29.20;1.00
516;DHT22;244;48.508;9.052;2023-10-13T15:24:15;29.20;1.00
516;DHT22;244;48.508;9.052;2023-10-13T15:26:43;29.20;1.00
516;DHT22;244;48.508;9.052;2023-10-13T15:29:14;29.10;1.00
516;DHT22;244;48.508;9.052;2023-10-13T15:31:43;29.10;1.00
516;DHT22;244;48.508;9.052;2023-10-13T15:34:20;29.00;1.00
516;DHT22;244;48.508;9.052;2023-10-13T15:36:49;29.00;1.00
516;DHT22;244;48.508;9.052;2023-10-13T15:39:21;28.90;1.00
516;DHT22;244;48.508;9.052;2023-10-13T15:41:50;28.80;1.00
516;DHT22;244;48.508;9.052;2023-10-13T15:44:19;28.80;1.00
516;DHT22;244;48.508;9.052;2023-10-13T15:46:52;28.70;1.00
516;DHT22;244;48.508;9.052;2023-10-13T15:49:19;28.60;1.00
516;DHT22;244;48.508;9.052;2023-10-13T15:51:46;28.70;1.00
516;DHT22;244;48.508;9.052;2023-10-13T15:54:14;28.60;1.00
516;DHT22;244;48.508;9.052;2023-10-13T15:56:44;28.50;1.00
516;DHT22;244;48.508;9.052;2023-10-13T15:59:11;28.30;1.00
516;DHT22;244;48.508;9.052;2023-10-13T16:01:38;28.10;1.00
516;DHT22;244;48.508;9.052;2023-10-13T16:04:08;27.90;1.00
516;DHT22;244;48.508;9.052;2023-10-13T16:06:38;27.70;1.00
516;DHT22;244;48.508;9.052;2023-10-13T16:09:05;27.50;1.00
516;DHT22;244;48.508;9.052;2023-10-13T16:11:40;27.30;1.00
516;DHT22;244;48.508;9.052;2023-10-13T16:14:08;27.10;1.00
516;DHT22;244;48.508;9.052;2023-10-13T16:16:41;26.90;1.00
516;DHT22;244;48.508;9.052;2023-10-13T16:19:13;26.70;1.00
516;DHT22;244;48.508;9.052;2023-10-13T16:21:43;26.50;1.00
516;DHT22;244;48.508;9.052;2023-10-13T16:24:11;26.30;1.00
516;DHT22;244;48.508;9.052;2023-10-13T16:26:45;26.10;1.00
516;DHT22;244;48.508;9.052;2023-10-13T16:29:14;25.80;1.00
516;DHT22;244;48.508;9.052;2023-10-13T16:31:41;25.60;1.00
516;DHT22;244;48.508;9.052;2023-10-13T16:34:12;25.50;1.00
516;DHT22;244;48.508;9.052;2023-10-13T16:36:41;25.20;1.00
516;DHT22;244;48.508;9.052;2023-10-13T16:39:09;25.00;1.00
516;DHT22;244;48.508;9.052;2023-10-13T16:41:36;24.80;1.00
516;DHT22;244;48.508;9.052;2023-10-13T16:44:03;24.60;1.00
516;DHT22;244;48.508;9.052;2023-10-13T16:46:35;24.40;1.00
516;DHT22;244;48.508;9.052;2023-10-13T16:49:02;24.30;1.00
516;DHT22;244;48.508;9.052;2023-10-13T16:51:31;24.10;1.00
516;DHT22;244;48.508;9.052;2023-10-13T16:53:58;24.00;1.00
516;DHT22;244;48.508;9.052;2023-10-13T16:56:25;23.90;1.00
516;DHT22;244;48.508;9.052;2023-10-13T16:58:52;23.70;1.00
516;DHT22;244;48.508;9.052;2023-10-13T17:01:20;23.60;1.00
516;DHT22;244;48.508;9.052;2023-10-13T17:03:48;23.40;1.00
516;DHT22;244;48.508;9.052;2023-10-13T17:06:16;23.30;1.00
516;DHT22;244;48.508;9.052;2023-10-13T17:08:45;23.10;1.00
516;DHT22;244;48.508;9.052;2023-10-13T17:11:15;23.00;1.00
516;DHT22;244;48.508;9.052;2023-10-13T17:13:43;22.90;1.00
516;DHT22;244;48.508;9.052;2023-10-13T17:16:12;22.80;1.00
516;DHT22;244;48.508;9.052;2023-10-13T17:18:38;22.70;1.00
516;DHT22;244;48.508;9.052;2023-10-13T17:21:13;22.60;1.00
516;DHT22;244;48.508;9.052;2023-10-13T17:23:41;22.40;1.00